Time;durP1;ratioP1;P1;durP2;ratioP2;P2;SDS_P1;SDS_P2;PMS_P1;PMS_P2;Temp;Humidity;BMP_temperature;BMP_pressure;BME280_temperature;BME280_humidity;BME280_pressure;Samples;Min_cycle;Max_cycle;Signal;HPM_P1;HPM_P2
2023/09/17 00:01:08;;;;;;;8.40;7.60;;;22.20;99.90;;;;;;4997226;28;20479;-71
2023/09/17 00:03:33;;;;;;;7.33;6.57;;;22.10;99.90;;;;;;4993651;28;20219;-72
2023/09/17 00:05:59;;;;;;;9.00;8.10;;;22.10;99.90;;;;;;5027134;28;20594;-72
2023/09/17 00:08:25;;;;;;;7.30;6.60;;;22.10;99.90;;;;;;4996858;28;20229;-72
2023/09/17 00:10:50;;;;;;;7.80;6.97;;;22.10;99.90;;;;;;4996578;28;20227;-71
2023/09/17 00:13:16;;;;;;;7.53;6.70;;;22.10;99.90;;;;;;4996443;28;20225;-71
2023/09/17 00:15:42;;;;;;;10.20;7.90;;;22.00;99.90;;;;;;4997722;28;20233;-71
2023/09/17 00:18:08;;;;;;;9.90;8.93;;;22.00;99.90;;;;;;4996120;28;20491;-71
2023/09/17 00:20:34;;;;;;;7.70;7.07;;;22.00;99.90;;;;;;4995517;28;20248;-71
2023/09/17 00:23:00;;;;;;;7.10;6.40;;;22.00;99.90;;;;;;5027890;28;20778;-71
2023/09/17 00:25:26;;;;;;;7.83;7.13;;;22.00;99.90;;;;;;4995257;28;20224;-71
2023/09/17 00:27:52;;;;;;;8.30;7.00;;;21.90;99.90;;;;;;5010766;28;21808;-71
2023/09/17 00:30:18;;;;;;;9.40;6.63;;;21.80;99.90;;;;;;5009894;28;20227;-71
2023/09/17 00:32:44;;;;;;;8.20;7.23;;;21.80;99.90;;;;;;5028182;28;20474;-71
2023/09/17 00:35:13;;;;;;;10.43;7.30;;;21.80;99.90;;;;;;5024542;28;20310;-71
2023/09/17 00:37:40;;;;;;;7.57;6.77;;;21.60;99.90;;;;;;4996268;28;20231;-71
2023/09/17 00:40:07;;;;;;;8.00;7.20;;;21.50;99.90;;;;;;4980140;28;20526;-71
2023/09/17 00:42:33;;;;;;;8.30;7.20;;;21.60;99.90;;;;;;4994294;28;20668;-71
2023/09/17 00:44:59;;;;;;;7.80;7.10;;;21.50;99.90;;;;;;4997757;28;20484;-71
2023/09/17 00:47:24;;;;;;;6.60;5.90;;;21.50;99.90;;;;;;4995356;28;20789;-71
2023/09/17 00:49:50;;;;;;;9.70;7.43;;;21.50;99.90;;;;;;4996424;28;20224;-72
2023/09/17 00:52:19;;;;;;;8.57;7.27;;;21.50;99.90;;;;;;4996256;28;21271;-71
2023/09/17 00:54:47;;;;;;;8.80;7.23;;;21.60;99.90;;;;;;5009947;28;20248;-71
2023/09/17 00:57:16;;;;;;;11.20;7.40;;;21.50;99.90;;;;;;4979957;28;20469;-72
2023/09/17 00:59:47;;;;;;;7.53;6.77;;;21.60;99.90;;;;;;4996136;28;20464;-71
2023/09/17 01:02:14;;;;;;;7.37;6.70;;;21.50;99.90;;;;;;5025714;28;20463;-71
2023/09/17 01:04:43;;;;;;;8.23;7.10;;;21.50;99.90;;;;;;4996287;28;21138;-71
2023/09/17 01:07:09;;;;;;;10.20;7.60;;;21.50;99.90;;;;;;4982986;28;20472;-72
2023/09/17 01:09:38;;;;;;;10.83;7.53;;;21.50;99.90;;;;;;4998185;28;20451;-72
2023/09/17 01:12:05;;;;;;;9.30;8.37;;;21.50;99.90;;;;;;5026939;28;20472;-71
2023/09/17 01:14:34;;;;;;;8.20;7.00;;;21.50;99.90;;;;;;4997113;28;20462;-71
2023/09/17 01:17:01;;;;;;;8.57;7.67;;;21.50;99.90;;;;;;4997518;28;20463;-71
2023/09/17 01:19:29;;;;;;;10.53;7.20;;;21.50;99.90;;;;;;4998359;28;20467;-71
2023/09/17 01:22:13;;;;;;;8.50;7.70;;;21.40;99.90;;;;;;4996248;28;20498;-72
2023/09/17 01:25:00;;;;;;;8.30;7.20;;;21.30;99.90;;;;;;4993873;28;20458;-72
2023/09/17 01:27:26;;;;;;;7.90;7.03;;;21.40;99.90;;;;;;5009807;28;20491;-72
2023/09/17 01:29:53;;;;;;;7.93;6.60;;;21.50;99.90;;;;;;5013446;28;20471;-72
2023/09/17 01:32:20;;;;;;;8.73;7.53;;;21.50;99.90;;;;;;5011197;28;20496;-72
2023/09/17 01:34:49;;;;;;;10.80;7.60;;;21.50;99.90;;;;;;4996751;28;20467;-72
2023/09/17 01:37:28;;;;;;;9.70;7.67;;;21.50;99.90;;;;;;5013447;28;20459;-72
2023/09/17 01:40:00;;;;;;;10.00;8.00;;;21.50;99.90;;;;;;5012418;28;20476;-71
2023/09/17 01:42:27;;;;;;;7.30;6.60;;;21.50;99.90;;;;;;4998846;28;20548;-72
2023/09/17 01:44:56;;;;;;;8.63;7.50;;;21.50;99.90;;;;;;5029310;28;21094;-71
2023/09/17 01:47:23;;;;;;;9.30;7.87;;;21.50;99.90;;;;;;4997109;28;20483;-71
2023/09/17 01:49:50;;;;;;;8.07;7.23;;;21.50;99.90;;;;;;5029776;28;20469;-72
2023/09/17 01:52:20;;;;;;;11.90;7.80;;;21.50;99.90;;;;;;4999695;28;20495;-72
2023/09/17 01:54:46;;;;;;;9.07;7.90;;;21.40;99.90;;;;;;4997091;28;20548;-72
2023/09/17 01:57:12;;;;;;;10.90;8.83;;;21.40;99.90;;;;;;4999118;28;20521;-71
2023/09/17 01:59:37;;;;;;;8.40;7.60;;;21.30;99.90;;;;;;5013150;28;20225;-72
2023/09/17 02:02:03;;;;;;;10.20;7.97;;;21.40;99.90;;;;;;4997621;28;20262;-72
2023/09/17 02:04:29;;;;;;;9.27;7.67;;;21.40;99.90;;;;;;5028403;28;20238;-71
2023/09/17 02:06:54;;;;;;;7.63;6.93;;;21.40;99.90;;;;;;5028304;28;20223;-73
2023/09/17 02:09:21;;;;;;;9.50;7.03;;;21.30;99.90;;;;;;5027990;28;20310;-71
2023/09/17 02:11:49;;;;;;;8.50;7.70;;;21.30;99.90;;;;;;4998991;28;20243;-72
2023/09/17 02:14:15;;;;;;;11.50;7.70;;;21.30;99.90;;;;;;4998287;28;20463;-72
2023/09/17 02:16:41;;;;;;;8.07;7.27;;;21.30;99.90;;;;;;5009654;28;20466;-72
2023/09/17 02:19:07;;;;;;;10.83;8.90;;;21.30;99.90;;;;;;5011873;28;20236;-71
2023/09/17 02:21:32;;;;;;;9.53;8.00;;;21.30;99.90;;;;;;5028336;28;20579;-71
2023/09/17 02:23:59;;;;;;;8.77;7.87;;;21.30;99.90;;;;;;5027152;28;20228;-72
2023/09/17 02:26:25;;;;;;;9.40;8.47;;;21.30;99.90;;;;;;5010639;28;20592;-71
2023/09/17 02:28:50;;;;;;;11.10;8.33;;;21.30;99.90;;;;;;4998954;28;20240;-71
2023/09/17 02:31:16;;;;;;;8.23;7.30;;;21.30;99.90;;;;;;4996197;28;20697;-71
2023/09/17 02:33:42;;;;;;;9.00;8.10;;;21.30;99.90;;;;;;4980939;28;21503;-71
2023/09/17 02:36:07;;;;;;;9.63;8.10;;;21.30;99.90;;;;;;4998506;28;20224;-71
2023/09/17 02:38:33;;;;;;;8.87;7.50;;;21.30;99.90;;;;;;4965486;28;20315;-72
2023/09/17 02:40:59;;;;;;;12.70;7.87;;;21.30;99.90;;;;;;4993929;28;20217;-71
2023/09/17 02:43:27;;;;;;;9.57;8.20;;;21.20;99.90;;;;;;4974574;28;20346;-71
2023/09/17 02:45:54;;;;;;;12.63;7.77;;;21.10;99.90;;;;;;4978281;28;20488;-71
2023/09/17 02:48:20;;;;;;;8.30;7.10;;;21.20;99.90;;;;;;5008341;28;20879;-72
2023/09/17 02:50:45;;;;;;;8.70;7.50;;;21.10;99.90;;;;;;4978091;28;20504;-72
2023/09/17 02:53:11;;;;;;;9.33;8.00;;;21.10;99.90;;;;;;4980660;28;20461;-71
2023/09/17 02:55:37;;;;;;;9.10;8.20;;;21.10;99.90;;;;;;4966767;28;21162;-72
2023/09/17 02:58:03;;;;;;;9.20;7.57;;;21.00;99.90;;;;;;4981059;28;20328;-71
2023/09/17 03:00:33;;;;;;;9.17;8.27;;;21.10;99.90;;;;;;5012425;28;20239;-72
2023/09/17 03:02:58;;;;;;;8.60;7.60;;;21.10;99.90;;;;;;4965943;28;20473;-71
2023/09/17 03:05:24;;;;;;;11.97;7.70;;;21.10;99.90;;;;;;4982397;28;20472;-72
2023/09/17 03:07:53;;;;;;;9.30;8.47;;;21.00;99.90;;;;;;4981384;28;20315;-71
2023/09/17 03:10:20;;;;;;;9.07;7.83;;;21.00;99.90;;;;;;4980676;28;20591;-71
2023/09/17 03:12:46;;;;;;;13.17;8.00;;;21.00;99.90;;;;;;4979081;28;20469;-71
2023/09/17 03:15:13;;;;;;;9.40;7.97;;;21.10;99.90;;;;;;4981440;28;20456;-71
2023/09/17 03:17:40;;;;;;;8.60;7.77;;;21.10;99.90;;;;;;4980670;28;20469;-71
2023/09/17 03:20:22;;;;;;;7.10;6.40;;;21.10;99.90;;;;;;4967206;28;20472;-72
2023/09/17 03:22:49;;;;;;;9.87;7.17;;;21.10;99.90;;;;;;4966047;28;20654;-72
2023/09/17 03:25:15;;;;;;;10.23;7.97;;;21.10;99.90;;;;;;5010842;28;21986;-71
2023/09/17 03:27:44;;;;;;;10.20;8.20;;;21.00;99.90;;;;;;4997988;28;20486;-71
2023/09/17 03:30:11;;;;;;;10.53;7.57;;;21.10;99.90;;;;;;4971015;28;20560;-71
2023/09/17 03:32:38;;;;;;;11.33;7.40;;;21.00;99.90;;;;;;4980275;28;20618;-72
2023/09/17 03:35:06;;;;;;;8.70;7.47;;;21.00;99.90;;;;;;4983134;28;20997;-72
2023/09/17 03:37:31;;;;;;;8.77;7.87;;;21.10;99.90;;;;;;4996698;28;21159;-71
2023/09/17 03:40:12;;;;;;;9.23;8.20;;;21.00;99.90;;;;;;4980161;28;20478;-72
2023/09/17 03:42:41;;;;;;;8.57;7.67;;;21.00;99.90;;;;;;4981111;28;20230;-72
2023/09/17 03:45:09;;;;;;;8.10;7.30;;;21.00;99.90;;;;;;4983835;28;20478;-71
2023/09/17 03:47:41;;;;;;;9.50;8.60;;;21.00;99.90;;;;;;5014092;28;20471;-72
2023/09/17 03:50:08;;;;;;;9.57;8.10;;;21.00;99.90;;;;;;4998607;28;20552;-71
2023/09/17 03:52:38;;;;;;;8.47;7.60;;;21.00;99.90;;;;;;4980148;28;20489;-72
2023/09/17 03:55:05;;;;;;;9.20;8.20;;;21.00;99.90;;;;;;4981456;28;21084;-71
2023/09/17 03:57:34;;;;;;;8.80;7.90;;;21.00;99.90;;;;;;4962507;28;21040;-71
2023/09/17 04:00:06;;;;;;;8.33;7.43;;;21.00;99.90;;;;;;4980696;28;20472;-73
2023/09/17 04:02:38;;;;;;;8.63;7.83;;;21.00;99.90;;;;;;4980238;28;20464;-71
2023/09/17 04:05:10;;;;;;;9.57;8.13;;;21.00;99.90;;;;;;4981008;28;20483;-71
2023/09/17 04:07:37;;;;;;;10.17;8.40;;;21.00;99.90;;;;;;4979414;28;20496;-71
2023/09/17 04:10:06;;;;;;;9.80;8.80;;;21.00;99.90;;;;;;4995049;28;21092;-71
2023/09/17 04:12:37;;;;;;;10.43;8.90;;;20.90;99.90;;;;;;4980561;28;20455;-71
2023/09/17 04:15:10;;;;;;;10.73;8.00;;;20.90;99.90;;;;;;4980391;28;20468;-71
2023/09/17 04:17:36;;;;;;;8.27;7.47;;;20.90;99.90;;;;;;4981596;28;20553;-71
2023/09/17 04:20:10;;;;;;;10.17;8.37;;;20.90;99.90;;;;;;4965577;28;21099;-71
2023/09/17 04:22:36;;;;;;;9.47;8.53;;;20.90;99.90;;;;;;4962411;28;20484;-71
2023/09/17 04:25:04;;;;;;;7.70;6.83;;;20.90;99.90;;;;;;4980683;28;20497;-72
2023/09/17 04:27:31;;;;;;;10.97;7.97;;;20.90;99.90;;;;;;4979318;28;20232;-72
2023/09/17 04:29:56;;;;;;;12.97;8.27;;;20.90;99.90;;;;;;4980340;28;21125;-71
2023/09/17 04:32:22;;;;;;;9.23;8.23;;;20.90;99.90;;;;;;4965165;28;20475;-71
2023/09/17 04:34:48;;;;;;;10.57;8.30;;;20.80;99.90;;;;;;4979395;28;20221;-72
2023/09/17 04:37:19;;;;;;;9.70;8.67;;;20.80;99.90;;;;;;4979675;28;20778;-72
2023/09/17 04:39:46;;;;;;;9.57;8.57;;;20.80;99.90;;;;;;4979593;28;20272;-71
2023/09/17 04:42:12;;;;;;;9.13;8.20;;;20.80;99.90;;;;;;4980074;28;20591;-71
2023/09/17 04:44:38;;;;;;;9.40;8.10;;;20.80;99.90;;;;;;4994091;28;20547;-71
2023/09/17 04:47:06;;;;;;;8.80;7.90;;;20.80;99.90;;;;;;4979922;28;20477;-71
2023/09/17 04:49:33;;;;;;;10.20;8.47;;;20.80;99.90;;;;;;4992151;28;20220;-72
2023/09/17 04:52:00;;;;;;;11.53;9.33;;;20.80;99.90;;;;;;4977535;28;20543;-71
2023/09/17 04:54:26;;;;;;;10.83;8.73;;;20.80;99.90;;;;;;4980546;28;20456;-71
2023/09/17 04:56:52;;;;;;;10.70;8.30;;;20.80;99.90;;;;;;4979131;28;20221;-71
2023/09/17 04:59:18;;;;;;;13.17;8.70;;;20.80;99.90;;;;;;4964174;28;20233;-72
2023/09/17 05:01:44;;;;;;;9.63;8.00;;;20.70;99.90;;;;;;4977190;28;20232;-71
2023/09/17 05:04:10;;;;;;;9.30;8.27;;;20.70;99.90;;;;;;4994031;28;21216;-71
2023/09/17 05:06:36;;;;;;;9.27;7.80;;;20.70;99.90;;;;;;4977822;28;20462;-71
2023/09/17 05:09:02;;;;;;;10.33;8.83;;;20.70;99.90;;;;;;4979159;28;20236;-71
2023/09/17 05:11:28;;;;;;;8.97;7.93;;;20.70;99.90;;;;;;4978582;28;20587;-71
2023/09/17 05:13:54;;;;;;;8.67;7.77;;;20.60;99.90;;;;;;4977248;28;20759;-71
2023/09/17 05:16:21;;;;;;;8.47;7.67;;;20.60;99.90;;;;;;4990542;28;21084;-71
2023/09/17 05:18:49;;;;;;;9.33;8.33;;;20.60;99.90;;;;;;4977686;28;20460;-71
2023/09/17 05:21:15;;;;;;;8.77;7.80;;;20.60;99.90;;;;;;5008394;28;20459;-71
2023/09/17 05:23:41;;;;;;;9.30;7.93;;;20.60;99.90;;;;;;4978528;28;20591;-72
2023/09/17 05:26:06;;;;;;;9.30;7.87;;;20.60;99.90;;;;;;5008491;28;20507;-71
2023/09/17 05:28:32;;;;;;;8.77;7.87;;;20.50;99.90;;;;;;4978004;28;21114;-71
2023/09/17 05:30:59;;;;;;;9.20;7.43;;;20.60;99.90;;;;;;4996483;28;20278;-72
2023/09/17 05:33:26;;;;;;;10.60;8.40;;;20.40;99.90;;;;;;4976814;28;20519;-71
2023/09/17 05:35:56;;;;;;;9.03;8.13;;;20.40;99.90;;;;;;4962631;28;20477;-72
2023/09/17 05:38:26;;;;;;;10.10;7.40;;;20.40;99.90;;;;;;4978210;28;20482;-72
2023/09/17 05:40:52;;;;;;;9.47;8.47;;;20.50;99.90;;;;;;4990450;28;20469;-72
2023/09/17 05:43:18;;;;;;;10.43;8.43;;;20.50;99.90;;;;;;4995072;28;20489;-71
2023/09/17 05:45:44;;;;;;;11.93;9.07;;;20.50;99.90;;;;;;4962702;28;20459;-72
2023/09/17 05:48:10;;;;;;;9.80;8.30;;;20.40;99.90;;;;;;4977176;28;20217;-71
2023/09/17 05:50:36;;;;;;;10.60;8.27;;;20.40;99.90;;;;;;4979124;28;20722;-71
2023/09/17 05:53:02;;;;;;;11.53;9.13;;;20.20;99.90;;;;;;4978149;28;20566;-71
2023/09/17 05:55:29;;;;;;;9.73;8.77;;;20.30;99.90;;;;;;4977959;28;20228;-71
2023/09/17 05:57:56;;;;;;;10.77;9.67;;;20.30;99.90;;;;;;4976492;28;20473;-72
2023/09/17 06:00:22;;;;;;;10.50;9.40;;;20.30;99.90;;;;;;4977021;28;21330;-71
2023/09/17 06:02:47;;;;;;;12.63;9.27;;;20.30;99.90;;;;;;4995357;28;20999;-72
2023/09/17 06:05:16;;;;;;;10.10;9.07;;;20.30;99.90;;;;;;4979185;28;20492;-71
2023/09/17 06:07:42;;;;;;;10.13;9.00;;;20.40;99.90;;;;;;4961196;28;21078;-71
2023/09/17 06:10:08;;;;;;;10.97;8.80;;;20.40;99.90;;;;;;4980096;28;20464;-71
2023/09/17 06:12:34;;;;;;;10.60;8.73;;;20.40;99.90;;;;;;5006281;28;20291;-71
2023/09/17 06:15:01;;;;;;;12.10;10.00;;;20.30;99.90;;;;;;4968782;28;20529;-72
2023/09/17 06:17:27;;;;;;;12.00;9.20;;;20.40;99.90;;;;;;4961554;28;20471;-72
2023/09/17 06:19:52;;;;;;;11.20;9.80;;;20.40;99.90;;;;;;5007613;28;20726;-71
2023/09/17 06:22:18;;;;;;;10.57;9.53;;;20.40;99.90;;;;;;4975976;28;21667;-71
2023/09/17 06:24:44;;;;;;;10.80;9.03;;;20.40;99.90;;;;;;4989270;28;20303;-73
2023/09/17 06:27:10;;;;;;;10.47;9.40;;;20.40;99.90;;;;;;4975953;28;21041;-72
2023/09/17 06:29:36;;;;;;;11.97;9.20;;;20.40;99.90;;;;;;4960373;28;20480;-72
2023/09/17 06:32:03;;;;;;;14.07;9.90;;;20.40;99.90;;;;;;4975379;28;20224;-72
2023/09/17 06:34:29;;;;;;;11.30;9.13;;;20.40;99.90;;;;;;4975365;28;20286;-73
2023/09/17 06:36:55;;;;;;;10.90;8.03;;;20.40;99.90;;;;;;4962408;28;21021;-71
2023/09/17 06:39:20;;;;;;;11.03;9.40;;;20.40;99.90;;;;;;4960380;28;20464;-72
2023/09/17 06:41:46;;;;;;;10.40;9.07;;;20.50;99.90;;;;;;4974745;28;20555;-72
2023/09/17 06:44:12;;;;;;;10.30;8.03;;;20.50;99.90;;;;;;4976807;28;20232;-71
2023/09/17 06:46:38;;;;;;;9.40;7.43;;;20.50;99.90;;;;;;4977195;28;20225;-71
2023/09/17 06:49:03;;;;;;;10.10;8.60;;;20.50;99.90;;;;;;4977810;28;20240;-71
2023/09/17 06:51:29;;;;;;;11.80;8.27;;;20.50;99.90;;;;;;5007682;28;20360;-71
2023/09/17 06:53:55;;;;;;;11.23;9.30;;;20.50;99.90;;;;;;4977760;28;20225;-71
2023/09/17 06:56:23;;;;;;;11.40;8.97;;;20.60;99.90;;;;;;4989389;28;20295;-72
2023/09/17 06:58:49;;;;;;;14.13;8.77;;;20.60;99.90;;;;;;4976773;28;20234;-71
2023/09/17 07:01:15;;;;;;;10.23;8.43;;;20.60;99.90;;;;;;4991401;28;20539;-72
2023/09/17 07:03:40;;;;;;;10.20;9.17;;;20.70;99.90;;;;;;4977891;28;20461;-72
2023/09/17 07:06:06;;;;;;;9.80;8.90;;;20.70;99.90;;;;;;4976218;28;20288;-72
2023/09/17 07:08:32;;;;;;;10.27;9.00;;;20.80;99.90;;;;;;4993271;28;20245;-71
2023/09/17 07:10:57;;;;;;;9.97;8.97;;;20.80;99.90;;;;;;4992783;28;20225;-71
2023/09/17 07:13:23;;;;;;;10.43;8.67;;;20.80;99.90;;;;;;4992568;28;20757;-71
2023/09/17 07:15:49;;;;;;;10.67;9.60;;;20.80;99.90;;;;;;4976696;28;20228;-71
2023/09/17 07:18:14;;;;;;;9.97;8.10;;;20.90;99.90;;;;;;5007963;28;20307;-72
2023/09/17 07:20:40;;;;;;;9.17;8.27;;;20.90;99.90;;;;;;4956519;28;20319;-72
2023/09/17 07:23:08;;;;;;;11.13;9.43;;;21.00;99.90;;;;;;4972481;28;20220;-72
2023/09/17 07:25:33;;;;;;;10.53;9.50;;;21.00;99.90;;;;;;4973828;28;20224;-71
2023/09/17 07:28:07;;;;;;;9.33;8.37;;;21.00;99.90;;;;;;4976110;28;21220;-73
2023/09/17 07:30:34;;;;;;;8.80;7.90;;;21.10;99.90;;;;;;4975514;28;20229;-72
2023/09/17 07:33:04;;;;;;;11.73;8.60;;;21.10;99.90;;;;;;4976651;28;20469;-73
2023/09/17 07:35:31;;;;;;;9.30;8.40;;;21.20;99.90;;;;;;4974352;28;20560;-72
2023/09/17 07:37:56;;;;;;;8.10;7.40;;;21.20;99.90;;;;;;4979205;28;21254;-73
2023/09/17 07:40:22;;;;;;;10.20;8.47;;;21.20;99.90;;;;;;4981142;28;20479;-73
2023/09/17 07:42:48;;;;;;;8.40;7.50;;;21.30;99.90;;;;;;4979618;28;21098;-72
2023/09/17 07:45:13;;;;;;;13.30;7.70;;;21.40;99.90;;;;;;4963002;28;20816;-73
2023/09/17 07:47:39;;;;;;;8.20;6.70;;;21.50;99.90;;;;;;4981924;28;20367;-72
2023/09/17 07:50:05;;;;;;;8.30;7.40;;;21.60;99.90;;;;;;4980361;28;20245;-73
2023/09/17 07:52:32;;;;;;;7.20;6.50;;;21.70;99.90;;;;;;5008816;28;21742;-73
2023/09/17 07:54:57;;;;;;;8.63;6.87;;;21.90;99.90;;;;;;4978234;28;21915;-72
2023/09/17 07:57:23;;;;;;;7.23;6.60;;;22.00;99.90;;;;;;4979647;28;21547;-72
2023/09/17 07:59:49;;;;;;;6.83;6.23;;;22.20;99.90;;;;;;4979976;28;20224;-72
2023/09/17 08:02:15;;;;;;;7.80;6.83;;;22.20;99.90;;;;;;4977770;28;20229;-73
2023/09/17 08:04:40;;;;;;;8.07;6.40;;;22.30;99.90;;;;;;4977149;28;20312;-73
2023/09/17 08:07:06;;;;;;;6.67;6.07;;;22.40;99.90;;;;;;4979793;28;20831;-73
2023/09/17 08:09:32;;;;;;;6.60;5.67;;;22.50;99.90;;;;;;4963407;28;20343;-73
2023/09/17 08:11:59;;;;;;;7.67;5.90;;;22.50;99.90;;;;;;4982545;28;20311;-72
2023/09/17 08:14:25;;;;;;;7.80;5.53;;;22.60;99.90;;;;;;5010201;28;20226;-72
2023/09/17 08:16:52;;;;;;;6.40;5.80;;;22.70;99.90;;;;;;4995804;28;20463;-72
2023/09/17 08:19:17;;;;;;;5.40;4.90;;;22.80;99.90;;;;;;4979361;28;20463;-72
2023/09/17 08:21:43;;;;;;;7.53;5.03;;;23.00;99.90;;;;;;4980805;28;20460;-72
2023/09/17 08:24:10;;;;;;;6.17;5.57;;;23.10;99.90;;;;;;4980958;28;20228;-72
2023/09/17 08:26:36;;;;;;;4.47;4.07;;;23.10;99.90;;;;;;4962905;28;20920;-72
2023/09/17 08:29:01;;;;;;;5.00;4.30;;;23.10;99.90;;;;;;4982142;28;20599;-73
2023/09/17 08:31:28;;;;;;;5.40;4.80;;;23.10;99.90;;;;;;4963314;28;20233;-72
2023/09/17 08:33:54;;;;;;;4.60;4.20;;;23.30;99.90;;;;;;4979774;28;20324;-73
2023/09/17 08:36:21;;;;;;;4.63;4.23;;;23.40;99.90;;;;;;4980012;28;20472;-72
2023/09/17 08:38:52;;;;;;;6.60;4.93;;;23.50;99.90;;;;;;4980731;28;20480;-73
2023/09/17 08:41:19;;;;;;;5.40;4.30;;;23.70;99.90;;;;;;4980158;28;20483;-72
2023/09/17 08:43:46;;;;;;;4.63;4.20;;;23.90;99.90;;;;;;4981032;28;20467;-73
2023/09/17 08:46:12;;;;;;;5.43;4.07;;;23.80;99.90;;;;;;4980668;28;20575;-72
2023/09/17 08:48:38;;;;;;;5.90;5.30;;;24.00;99.90;;;;;;4979889;28;21504;-72
2023/09/17 08:51:05;;;;;;;6.93;4.90;;;24.10;99.90;;;;;;5010104;28;20480;-72
2023/09/17 08:53:39;;;;;;;4.70;4.30;;;24.30;99.90;;;;;;4979807;28;20475;-73
2023/09/17 08:56:06;;;;;;;4.73;4.33;;;24.30;99.90;;;;;;4991520;28;20515;-72
2023/09/17 08:58:38;;;;;;;4.90;3.90;;;24.50;99.90;;;;;;4979832;28;20630;-72
2023/09/17 09:01:07;;;;;;;7.90;4.30;;;24.60;99.90;;;;;;4975851;28;20480;-73
2023/09/17 09:03:35;;;;;;;7.40;4.63;;;24.70;99.90;;;;;;4976721;28;20638;-72
2023/09/17 09:06:03;;;;;;;4.07;3.77;;;24.80;99.90;;;;;;4961028;28;20949;-73
2023/09/17 09:08:31;;;;;;;4.43;4.03;;;24.80;99.90;;;;;;4992685;28;20526;-72
2023/09/17 09:10:56;;;;;;;4.83;4.43;;;24.80;99.90;;;;;;4978449;28;21056;-73
2023/09/17 09:13:22;;;;;;;6.70;3.33;;;24.90;99.90;;;;;;5006820;28;20472;-73
2023/09/17 09:15:48;;;;;;;3.60;3.30;;;25.10;99.90;;;;;;4979096;28;20224;-72
2023/09/17 09:18:14;;;;;;;4.80;3.43;;;25.20;99.90;;;;;;4978468;28;20251;-73
2023/09/17 09:20:41;;;;;;;4.17;3.77;;;25.20;99.90;;;;;;5007271;28;20483;-73
2023/09/17 09:23:07;;;;;;;5.00;4.50;;;25.50;99.90;;;;;;4960806;28;20588;-73
2023/09/17 09:25:34;;;;;;;4.00;3.70;;;25.80;99.90;;;;;;4960163;28;21759;-74
2023/09/17 09:28:03;;;;;;;5.13;4.00;;;25.80;99.90;;;;;;4976808;28;21236;-74
2023/09/17 09:30:29;;;;;;;5.60;4.07;;;25.90;99.90;;;;;;4975529;28;20470;-73
2023/09/17 09:32:56;;;;;;;5.33;4.70;;;26.00;99.90;;;;;;4975797;28;20511;-74
2023/09/17 09:35:23;;;;;;;5.63;3.73;;;26.20;99.90;;;;;;4976338;28;20471;-74
2023/09/17 09:37:51;;;;;;;4.20;3.80;;;26.40;99.90;;;;;;4974734;28;20464;-73
2023/09/17 09:40:17;;;;;;;3.87;3.57;;;26.40;99.90;;;;;;4989083;28;20467;-72
2023/09/17 09:42:43;;;;;;;4.93;3.40;;;26.30;99.90;;;;;;4993095;28;20472;-72
2023/09/17 09:45:15;;;;;;;5.47;4.30;;;26.30;99.90;;;;;;4957623;28;20479;-74
2023/09/17 09:47:46;;;;;;;4.23;3.53;;;26.30;99.90;;;;;;4995043;28;20232;-74
2023/09/17 09:50:21;;;;;;;3.83;3.43;;;26.50;99.90;;;;;;4996170;28;20464;-72
2023/09/17 09:52:48;;;;;;;4.17;3.50;;;26.70;99.90;;;;;;4981739;28;20470;-73
2023/09/17 09:55:14;;;;;;;3.90;3.60;;;26.90;99.90;;;;;;5006688;28;20608;-73
2023/09/17 09:57:41;;;;;;;4.90;3.80;;;27.00;99.90;;;;;;4975129;28;20237;-73
2023/09/17 10:00:20;;;;;;;3.80;3.50;;;27.00;99.90;;;;;;4975355;28;20212;-74
2023/09/17 10:02:46;;;;;;;3.97;3.67;;;27.20;99.90;;;;;;4974173;28;20471;-73
2023/09/17 10:05:18;;;;;;;4.30;3.47;;;27.20;99.90;;;;;;4975680;28;20494;-72
2023/09/17 10:07:47;;;;;;;3.90;3.60;;;27.40;99.90;;;;;;4976123;28;20518;-73
2023/09/17 10:10:14;;;;;;;4.30;3.30;;;27.40;99.90;;;;;;4974039;28;20337;-73
2023/09/17 10:12:40;;;;;;;3.83;3.53;;;27.40;99.90;;;;;;4975779;28;21226;-74
2023/09/17 10:15:06;;;;;;;4.50;4.10;;;27.40;99.90;;;;;;4989585;28;20688;-73
2023/09/17 10:17:36;;;;;;;4.47;3.50;;;27.30;99.90;;;;;;4961112;28;20232;-73
2023/09/17 10:20:06;;;;;;;5.53;4.10;;;27.40;99.90;;;;;;4975080;28;20460;-73
2023/09/17 10:22:37;;;;;;;4.75;4.43;;;27.90;99.90;;;;;;4958548;28;20345;-73
2023/09/17 10:25:08;;;;;;;3.70;3.40;;;28.00;99.90;;;;;;4958287;28;20228;-73
2023/09/17 10:27:36;;;;;;;4.22;3.67;;;28.20;99.90;;;;;;4972653;28;20238;-73
2023/09/17 10:30:03;;;;;;;4.50;4.10;;;28.20;99.90;;;;;;4972701;28;20332;-74
2023/09/17 10:32:31;;;;;;;4.20;3.80;;;28.30;99.90;;;;;;4974013;28;20298;-74
2023/09/17 10:34:59;;;;;;;5.55;4.13;;;28.60;99.90;;;;;;4987937;28;20221;-74
2023/09/17 10:37:27;;;;;;;4.63;4.05;;;28.60;99.90;;;;;;4973838;28;20233;-73
2023/09/17 10:39:55;;;;;;;4.30;3.90;;;28.50;99.90;;;;;;4987629;28;20225;-73
2023/09/17 10:42:21;;;;;;;3.90;3.60;;;28.60;99.90;;;;;;4972631;28;21889;-73
2023/09/17 10:44:49;;;;;;;4.82;3.60;;;28.60;99.90;;;;;;4971950;28;21720;-73
2023/09/17 10:47:17;;;;;;;4.40;3.75;;;28.50;99.90;;;;;;4973802;28;20256;-73
2023/09/17 10:49:43;;;;;;;4.00;3.60;;;28.40;99.90;;;;;;4973429;28;20240;-73
2023/09/17 10:52:11;;;;;;;4.40;3.97;;;28.50;99.90;;;;;;5002757;28;20254;-73
2023/09/17 10:54:38;;;;;;;4.90;4.43;;;28.60;99.90;;;;;;4972796;28;20229;-73
2023/09/17 10:57:29;;;;;;;7.93;4.15;;;28.70;99.90;;;;;;4972325;28;20311;-74
2023/09/17 10:59:57;;;;;;;4.47;3.53;;;28.80;99.90;;;;;;4990592;28;20262;-73
2023/09/17 11:02:26;;;;;;;4.40;4.10;;;28.70;99.90;;;;;;4993604;28;21722;-73
2023/09/17 11:04:52;;;;;;;4.55;4.05;;;28.80;99.90;;;;;;5023078;28;20223;-74
2023/09/17 11:07:19;;;;;;;6.68;4.28;;;28.90;99.90;;;;;;4991149;28;20313;-73
2023/09/17 11:09:45;;;;;;;4.35;3.95;;;28.90;99.90;;;;;;4957161;28;20943;-74
2023/09/17 11:12:12;;;;;;;6.90;4.30;;;29.00;99.90;;;;;;4976483;28;20229;-73
2023/09/17 11:14:38;;;;;;;5.32;4.13;;;29.10;99.90;;;;;;4975387;28;20263;-73
2023/09/17 11:17:04;;;;;;;4.63;4.22;;;29.00;99.90;;;;;;4978519;28;21928;-74
2023/09/17 11:19:30;;;;;;;5.35;4.65;;;29.00;99.90;;;;;;5008787;28;20349;-74
2023/09/17 11:22:01;;;;;;;7.80;5.00;;;28.90;99.90;;;;;;5006722;28;20227;-74
2023/09/17 11:24:28;;;;;;;4.78;4.38;;;28.90;99.90;;;;;;4974177;28;20264;-74
2023/09/17 11:26:56;;;;;;;5.65;4.32;;;28.90;99.90;;;;;;4976770;28;20312;-73
2023/09/17 11:29:44;;;;;;;6.97;4.60;;;29.00;99.90;;;;;;4973948;28;20240;-74
2023/09/17 11:32:10;;;;;;;5.80;5.25;;;29.10;99.90;;;;;;4977355;28;20232;-73
2023/09/17 11:34:37;;;;;;;5.53;5.10;;;29.20;99.90;;;;;;4978633;28;20233;-74
2023/09/17 11:37:05;;;;;;;4.78;4.38;;;29.20;99.90;;;;;;4977142;28;20268;-74
2023/09/17 11:39:50;;;;;;;5.05;4.47;;;29.10;99.90;;;;;;4976904;28;21625;-74
2023/09/17 11:42:16;;;;;;;4.75;4.35;;;29.00;99.90;;;;;;4960564;28;20242;-74
2023/09/17 11:44:45;;;;;;;5.22;4.72;;;29.10;99.90;;;;;;4978170;28;21772;-74
2023/09/17 11:47:13;;;;;;;4.15;3.85;;;29.10;99.90;;;;;;4975445;28;20249;-74
2023/09/17 11:49:40;;;;;;;4.80;4.40;;;29.10;99.90;;;;;;4961644;28;20359;-74
2023/09/17 11:52:12;;;;;;;5.35;4.80;;;29.20;99.90;;;;;;4960040;28;20258;-73
2023/09/17 11:54:50;;;;;;;4.50;4.05;;;29.20;99.90;;;;;;5007875;28;20231;-73
2023/09/17 11:57:24;;;;;;;4.78;4.30;;;29.20;99.90;;;;;;4987787;28;20228;-73
2023/09/17 11:59:49;;;;;;;5.35;4.32;;;29.20;99.90;;;;;;4976882;28;20233;-74
2023/09/17 12:02:17;;;;;;;5.32;4.82;;;29.10;99.90;;;;;;4991309;28;20322;-73
2023/09/17 12:04:43;;;;;;;6.90;4.40;;;29.10;99.90;;;;;;5004766;28;20234;-73
2023/09/17 12:07:12;;;;;;;6.55;5.25;;;29.30;99.90;;;;;;4976030;28;20217;-73
2023/09/17 12:09:49;;;;;;;6.30;5.70;;;29.30;99.90;;;;;;4959783;28;20313;-73
2023/09/17 12:12:19;;;;;;;5.50;5.00;;;29.30;99.90;;;;;;4975357;28;20307;-74
2023/09/17 12:14:47;;;;;;;5.78;5.35;;;29.40;99.90;;;;;;4976917;28;20339;-74
2023/09/17 12:17:14;;;;;;;6.35;5.38;;;29.50;99.90;;;;;;4974454;28;20274;-73
2023/09/17 12:19:40;;;;;;;5.72;5.25;;;29.40;99.90;;;;;;4977022;28;20797;-74
2023/09/17 12:22:09;;;;;;;5.55;5.13;;;29.30;99.90;;;;;;4990108;28;20222;-73
2023/09/17 12:24:35;;;;;;;6.25;5.07;;;29.30;99.90;;;;;;4973562;28;20233;-74
2023/09/17 12:29:36;;;;;;;5.30;4.90;;;29.30;99.90;;;;;;4993796;28;20240;-74
2023/09/17 12:32:06;;;;;;;7.32;5.40;;;29.30;99.90;;;;;;4995721;28;20220;-73
2023/09/17 12:34:35;;;;;;;5.85;5.35;;;29.30;99.90;;;;;;4976412;28;20814;-74
2023/09/17 12:37:01;;;;;;;7.57;4.63;;;29.20;99.90;;;;;;4974773;28;20315;-74
2023/09/17 12:39:26;;;;;;;4.93;4.53;;;29.40;99.90;;;;;;4974775;28;20355;-73
2023/09/17 12:41:52;;;;;;;5.75;5.20;;;29.50;99.90;;;;;;4976868;28;20224;-73
2023/09/17 12:44:18;;;;;;;5.97;5.38;;;29.50;99.90;;;;;;4975697;28;20217;-74
2023/09/17 12:46:44;;;;;;;6.40;5.30;;;29.50;99.90;;;;;;4976961;28;20225;-74
2023/09/17 12:49:10;;;;;;;6.40;5.40;;;29.80;99.90;;;;;;4975634;28;20240;-74